Terminal Aerodrome Forecast
Issued by NWS

Home | Current Version | Previous Version | Text Only | Print | Product List | Glossary On
Versions: 1 2 3 4 5 6 7 8 9 10 11 12 13 14
000
FTUS43 KIND 242300
TAFBMG
TAF
KBMG 242328Z 2500/2524 15006KT P6SM BKN060
     FM250500 13006KT P6SM VCSH OVC035
     FM251000 12010KT 5SM -RA BR OVC015
     FM251300 12010KT 4SM -RA BR BKN008 OVC015
     FM251900 09010KT 4SM -RA BR VCTS BKN008CB OVC015
      AMD LTD TO CLD VIS AND WIND 2501/2513=

USA.gov is the U.S. government's official web portal to all federal, state and local government web resources and services.